sensor_id;sensor_type;location;lat;lon;timestamp;P1;durP1;ratioP1;P2;durP2;ratioP2
68792;SDS011;55778;54.346;10.210;2023-02-01T00:02:23;19.23;;;3.17;;
68792;SDS011;55778;54.346;10.210;2023-02-01T00:04:48;21.55;;;3.08;;
68792;SDS011;55778;54.346;10.210;2023-02-01T00:07:14;20.48;;;2.17;;
68792;SDS011;55778;54.346;10.210;2023-02-01T00:09:39;22.25;;;2.75;;
68792;SDS011;55778;54.346;10.210;2023-02-01T00:12:04;14.80;;;2.47;;
68792;SDS011;55778;54.346;10.210;2023-02-01T00:14:30;11.02;;;2.70;;
68792;SDS011;55778;54.346;10.210;2023-02-01T00:16:57;18.23;;;2.03;;
68792;SDS011;55778;54.346;10.210;2023-02-01T00:19:22;13.57;;;2.15;;
68792;SDS011;55778;54.346;10.210;2023-02-01T00:21:48;11.85;;;2.38;;
68792;SDS011;55778;54.346;10.210;2023-02-01T00:24:13;12.45;;;2.83;;
68792;SDS011;55778;54.346;10.210;2023-02-01T00:26:40;20.67;;;3.55;;
68792;SDS011;55778;54.346;10.210;2023-02-01T00:29:17;18.90;;;2.53;;
68792;SDS011;55778;54.346;10.210;2023-02-01T00:31:44;19.13;;;3.20;;
68792;SDS011;55778;54.346;10.210;2023-02-01T00:34:11;5.35;;;1.88;;
68792;SDS011;55778;54.346;10.210;2023-02-01T00:36:39;15.07;;;2.13;;
68792;SDS011;55778;54.346;10.210;2023-02-01T00:39:05;20.73;;;2.67;;
68792;SDS011;55778;54.346;10.210;2023-02-01T00:41:30;13.68;;;2.30;;
68792;SDS011;55778;54.346;10.210;2023-02-01T00:43:56;23.55;;;2.85;;
68792;SDS011;55778;54.346;10.210;2023-02-01T00:46:21;14.10;;;2.60;;
68792;SDS011;55778;54.346;10.210;2023-02-01T00:48:47;26.30;;;3.03;;
68792;SDS011;55778;54.346;10.210;2023-02-01T00:51:14;20.77;;;3.13;;
68792;SDS011;55778;54.346;10.210;2023-02-01T00:53:44;13.85;;;2.75;;
68792;SDS011;55778;54.346;10.210;2023-02-01T00:56:10;13.48;;;2.30;;
68792;SDS011;55778;54.346;10.210;2023-02-01T00:58:36;19.38;;;2.92;;
68792;SDS011;55778;54.346;10.210;2023-02-01T01:01:05;13.23;;;2.90;;
68792;SDS011;55778;54.346;10.210;2023-02-01T01:03:33;21.02;;;3.38;;
68792;SDS011;55778;54.346;10.210;2023-02-01T01:06:01;25.30;;;3.42;;
68792;SDS011;55778;54.346;10.210;2023-02-01T01:08:29;23.08;;;3.55;;
68792;SDS011;55778;54.346;10.210;2023-02-01T01:10:54;22.38;;;3.10;;
68792;SDS011;55778;54.346;10.210;2023-02-01T01:13:20;20.58;;;3.42;;
68792;SDS011;55778;54.346;10.210;2023-02-01T01:15:45;25.92;;;3.25;;
68792;SDS011;55778;54.346;10.210;2023-02-01T01:18:11;20.13;;;4.45;;
68792;SDS011;55778;54.346;10.210;2023-02-01T01:20:37;14.35;;;2.80;;
68792;SDS011;55778;54.346;10.210;2023-02-01T01:23:04;17.38;;;3.30;;
68792;SDS011;55778;54.346;10.210;2023-02-01T01:25:29;21.25;;;3.05;;
68792;SDS011;55778;54.346;10.210;2023-02-01T01:27:55;19.27;;;4.50;;
68792;SDS011;55778;54.346;10.210;2023-02-01T01:30:20;13.70;;;3.25;;
68792;SDS011;55778;54.346;10.210;2023-02-01T01:32:46;22.67;;;2.80;;
68792;SDS011;55778;54.346;10.210;2023-02-01T01:35:11;25.80;;;3.50;;
68792;SDS011;55778;54.346;10.210;2023-02-01T01:37:37;12.93;;;2.75;;
68792;SDS011;55778;54.346;10.210;2023-02-01T01:40:03;20.70;;;4.30;;
68792;SDS011;55778;54.346;10.210;2023-02-01T01:42:30;23.95;;;2.67;;
68792;SDS011;55778;54.346;10.210;2023-02-01T01:44:57;19.17;;;3.10;;
68792;SDS011;55778;54.346;10.210;2023-02-01T01:47:23;20.73;;;2.75;;
68792;SDS011;55778;54.346;10.210;2023-02-01T01:49:49;16.23;;;2.58;;
68792;SDS011;55778;54.346;10.210;2023-02-01T01:52:15;15.70;;;3.10;;
68792;SDS011;55778;54.346;10.210;2023-02-01T01:54:42;26.38;;;3.75;;
68792;SDS011;55778;54.346;10.210;2023-02-01T01:57:26;20.98;;;3.70;;
68792;SDS011;55778;54.346;10.210;2023-02-01T01:59:59;16.15;;;3.90;;
68792;SDS011;55778;54.346;10.210;2023-02-01T02:02:28;24.92;;;3.08;;
68792;SDS011;55778;54.346;10.210;2023-02-01T02:04:53;13.45;;;2.60;;
68792;SDS011;55778;54.346;10.210;2023-02-01T02:07:21;22.48;;;3.00;;
68792;SDS011;55778;54.346;10.210;2023-02-01T02:09:50;22.17;;;3.03;;
68792;SDS011;55778;54.346;10.210;2023-02-01T02:12:17;19.73;;;3.20;;
68792;SDS011;55778;54.346;10.210;2023-02-01T02:14:42;25.58;;;3.75;;
68792;SDS011;55778;54.346;10.210;2023-02-01T02:22:48;20.17;;;3.20;;
68792;SDS011;55778;54.346;10.210;2023-02-01T02:25:29;19.08;;;2.78;;
68792;SDS011;55778;54.346;10.210;2023-02-01T02:34:18;22.77;;;2.30;;
68792;SDS011;55778;54.346;10.210;2023-02-01T02:44:50;21.08;;;3.30;;
68792;SDS011;55778;54.346;10.210;2023-02-01T02:47:44;19.15;;;2.63;;
68792;SDS011;55778;54.346;10.210;2023-02-01T02:50:28;20.35;;;3.25;;
68792;SDS011;55778;54.346;10.210;2023-02-01T02:53:19;26.88;;;3.65;;
68792;SDS011;55778;54.346;10.210;2023-02-01T02:56:10;13.40;;;2.10;;
68792;SDS011;55778;54.346;10.210;2023-02-01T02:58:56;20.45;;;3.67;;
68792;SDS011;55778;54.346;10.210;2023-02-01T03:01:42;19.60;;;2.85;;
68792;SDS011;55778;54.346;10.210;2023-02-01T03:04:26;7.45;;;1.98;;
68792;SDS011;55778;54.346;10.210;2023-02-01T03:06:52;23.27;;;3.30;;
68792;SDS011;55778;54.346;10.210;2023-02-01T03:09:31;28.88;;;3.35;;
68792;SDS011;55778;54.346;10.210;2023-02-01T03:12:03;23.83;;;3.38;;
68792;SDS011;55778;54.346;10.210;2023-02-01T03:14:54;20.65;;;2.83;;
68792;SDS011;55778;54.346;10.210;2023-02-01T03:17:27;32.78;;;4.40;;
68792;SDS011;55778;54.346;10.210;2023-02-01T03:19:59;15.13;;;3.03;;
68792;SDS011;55778;54.346;10.210;2023-02-01T03:22:28;20.00;;;2.38;;
68792;SDS011;55778;54.346;10.210;2023-02-01T03:25:00;17.33;;;2.67;;
68792;SDS011;55778;54.346;10.210;2023-02-01T03:27:30;21.33;;;3.33;;
68792;SDS011;55778;54.346;10.210;2023-02-01T03:32:43;20.58;;;3.95;;
68792;SDS011;55778;54.346;10.210;2023-02-01T03:40:46;20.77;;;3.30;;
68792;SDS011;55778;54.346;10.210;2023-02-01T03:43:17;15.20;;;2.10;;
68792;SDS011;55778;54.346;10.210;2023-02-01T03:45:46;16.15;;;3.42;;
68792;SDS011;55778;54.346;10.210;2023-02-01T03:48:17;15.80;;;3.10;;
68792;SDS011;55778;54.346;10.210;2023-02-01T03:50:44;26.77;;;3.30;;
68792;SDS011;55778;54.346;10.210;2023-02-01T03:53:14;18.92;;;3.60;;
68792;SDS011;55778;54.346;10.210;2023-02-01T03:55:42;21.90;;;3.13;;
68792;SDS011;55778;54.346;10.210;2023-02-01T04:00:39;17.25;;;2.70;;
68792;SDS011;55778;54.346;10.210;2023-02-01T04:03:05;14.60;;;2.25;;
68792;SDS011;55778;54.346;10.210;2023-02-01T04:05:32;13.75;;;1.73;;
68792;SDS011;55778;54.346;10.210;2023-02-01T04:07:58;10.20;;;2.40;;
68792;SDS011;55778;54.346;10.210;2023-02-01T04:10:24;15.40;;;1.70;;
68792;SDS011;55778;54.346;10.210;2023-02-01T04:12:49;7.00;;;1.27;;
68792;SDS011;55778;54.346;10.210;2023-02-01T04:15:15;13.23;;;2.47;;
68792;SDS011;55778;54.346;10.210;2023-02-01T04:17:40;9.10;;;1.33;;
68792;SDS011;55778;54.346;10.210;2023-02-01T04:20:06;7.07;;;1.27;;
68792;SDS011;55778;54.346;10.210;2023-02-01T04:22:31;7.63;;;1.58;;
68792;SDS011;55778;54.346;10.210;2023-02-01T04:24:57;8.55;;;1.65;;
68792;SDS011;55778;54.346;10.210;2023-02-01T04:27:22;13.93;;;1.85;;
68792;SDS011;55778;54.346;10.210;2023-02-01T04:29:48;6.45;;;1.20;;
68792;SDS011;55778;54.346;10.210;2023-02-01T04:32:16;5.90;;;1.17;;
68792;SDS011;55778;54.346;10.210;2023-02-01T04:34:42;14.13;;;1.65;;
68792;SDS011;55778;54.346;10.210;2023-02-01T04:37:08;12.65;;;1.58;;
68792;SDS011;55778;54.346;10.210;2023-02-01T04:39:33;12.32;;;1.77;;
68792;SDS011;55778;54.346;10.210;2023-02-01T04:41:59;11.38;;;2.25;;
68792;SDS011;55778;54.346;10.210;2023-02-01T04:44:24;9.85;;;1.58;;
68792;SDS011;55778;54.346;10.210;2023-02-01T04:46:49;6.10;;;1.42;;
68792;SDS011;55778;54.346;10.210;2023-02-01T04:49:15;8.68;;;1.75;;
68792;SDS011;55778;54.346;10.210;2023-02-01T04:51:41;7.45;;;1.70;;
68792;SDS011;55778;54.346;10.210;2023-02-01T04:54:07;9.68;;;1.98;;
68792;SDS011;55778;54.346;10.210;2023-02-01T04:56:33;12.30;;;1.58;;
68792;SDS011;55778;54.346;10.210;2023-02-01T04:59:00;6.20;;;1.40;;
68792;SDS011;55778;54.346;10.210;2023-02-01T05:01:27;8.32;;;1.60;;
68792;SDS011;55778;54.346;10.210;2023-02-01T05:03:53;11.35;;;1.98;;
68792;SDS011;55778;54.346;10.210;2023-02-01T05:06:19;12.73;;;1.75;;
68792;SDS011;55778;54.346;10.210;2023-02-01T05:08:44;15.93;;;1.65;;
68792;SDS011;55778;54.346;10.210;2023-02-01T05:11:09;11.77;;;1.70;;
68792;SDS011;55778;54.346;10.210;2023-02-01T05:13:55;10.40;;;1.63;;
68792;SDS011;55778;54.346;10.210;2023-02-01T05:16:20;11.05;;;1.88;;
68792;SDS011;55778;54.346;10.210;2023-02-01T05:18:46;5.57;;;1.30;;
68792;SDS011;55778;54.346;10.210;2023-02-01T05:21:11;8.77;;;1.80;;
68792;SDS011;55778;54.346;10.210;2023-02-01T05:23:37;5.20;;;1.17;;
68792;SDS011;55778;54.346;10.210;2023-02-01T05:26:23;10.07;;;1.73;;
68792;SDS011;55778;54.346;10.210;2023-02-01T05:28:49;13.65;;;1.42;;
68792;SDS011;55778;54.346;10.210;2023-02-01T05:31:15;15.27;;;2.13;;
68792;SDS011;55778;54.346;10.210;2023-02-01T05:33:41;5.70;;;1.60;;
68792;SDS011;55778;54.346;10.210;2023-02-01T05:36:06;10.10;;;2.13;;
68792;SDS011;55778;54.346;10.210;2023-02-01T05:38:32;11.38;;;1.77;;
68792;SDS011;55778;54.346;10.210;2023-02-01T05:40:58;9.60;;;2.28;;
68792;SDS011;55778;54.346;10.210;2023-02-01T05:43:23;12.77;;;2.72;;
68792;SDS011;55778;54.346;10.210;2023-02-01T05:45:49;8.35;;;1.70;;
68792;SDS011;55778;54.346;10.210;2023-02-01T05:48:14;11.60;;;1.50;;
68792;SDS011;55778;54.346;10.210;2023-02-01T05:50:39;17.00;;;1.92;;
68792;SDS011;55778;54.346;10.210;2023-02-01T05:53:05;11.77;;;1.65;;
68792;SDS011;55778;54.346;10.210;2023-02-01T05:55:30;12.77;;;1.92;;
68792;SDS011;55778;54.346;10.210;2023-02-01T05:57:56;7.20;;;1.85;;
68792;SDS011;55778;54.346;10.210;2023-02-01T06:00:22;5.45;;;2.03;;
68792;SDS011;55778;54.346;10.210;2023-02-01T06:02:48;11.27;;;2.08;;
68792;SDS011;55778;54.346;10.210;2023-02-01T06:05:13;10.95;;;1.70;;
68792;SDS011;55778;54.346;10.210;2023-02-01T06:07:39;8.38;;;2.22;;
68792;SDS011;55778;54.346;10.210;2023-02-01T06:10:04;11.20;;;1.48;;
68792;SDS011;55778;54.346;10.210;2023-02-01T06:12:30;18.50;;;2.33;;
68792;SDS011;55778;54.346;10.210;2023-02-01T06:14:55;12.90;;;1.65;;
68792;SDS011;55778;54.346;10.210;2023-02-01T06:17:20;14.55;;;1.92;;
68792;SDS011;55778;54.346;10.210;2023-02-01T06:19:46;14.52;;;1.73;;
68792;SDS011;55778;54.346;10.210;2023-02-01T06:22:13;13.77;;;2.05;;
68792;SDS011;55778;54.346;10.210;2023-02-01T06:24:39;9.75;;;1.85;;
68792;SDS011;55778;54.346;10.210;2023-02-01T06:27:06;15.25;;;1.75;;
68792;SDS011;55778;54.346;10.210;2023-02-01T06:29:32;6.50;;;1.77;;
68792;SDS011;55778;54.346;10.210;2023-02-01T06:31:57;12.70;;;2.13;;
68792;SDS011;55778;54.346;10.210;2023-02-01T06:34:23;14.70;;;1.83;;
68792;SDS011;55778;54.346;10.210;2023-02-01T06:36:48;17.42;;;2.33;;
68792;SDS011;55778;54.346;10.210;2023-02-01T06:39:14;17.70;;;2.45;;
68792;SDS011;55778;54.346;10.210;2023-02-01T06:41:41;12.95;;;2.45;;
68792;SDS011;55778;54.346;10.210;2023-02-01T06:44:08;11.50;;;1.92;;
68792;SDS011;55778;54.346;10.210;2023-02-01T06:46:33;12.15;;;2.03;;
68792;SDS011;55778;54.346;10.210;2023-02-01T06:48:59;19.17;;;1.65;;
68792;SDS011;55778;54.346;10.210;2023-02-01T06:51:25;15.40;;;2.47;;
68792;SDS011;55778;54.346;10.210;2023-02-01T06:53:53;7.15;;;1.58;;
68792;SDS011;55778;54.346;10.210;2023-02-01T06:56:19;12.20;;;1.75;;
68792;SDS011;55778;54.346;10.210;2023-02-01T06:58:45;12.05;;;1.63;;
68792;SDS011;55778;54.346;10.210;2023-02-01T07:01:10;15.23;;;1.90;;
68792;SDS011;55778;54.346;10.210;2023-02-01T07:03:37;15.40;;;2.28;;
68792;SDS011;55778;54.346;10.210;2023-02-01T07:06:03;13.85;;;2.47;;
68792;SDS011;55778;54.346;10.210;2023-02-01T07:08:30;15.90;;;2.38;;
68792;SDS011;55778;54.346;10.210;2023-02-01T07:10:56;11.40;;;1.85;;
68792;SDS011;55778;54.346;10.210;2023-02-01T07:13:25;21.17;;;1.85;;
68792;SDS011;55778;54.346;10.210;2023-02-01T07:15:51;8.02;;;2.22;;
68792;SDS011;55778;54.346;10.210;2023-02-01T07:18:19;17.05;;;2.30;;
68792;SDS011;55778;54.346;10.210;2023-02-01T07:20:49;17.17;;;2.60;;
68792;SDS011;55778;54.346;10.210;2023-02-01T07:23:15;12.25;;;2.50;;
68792;SDS011;55778;54.346;10.210;2023-02-01T07:25:40;16.52;;;2.50;;
68792;SDS011;55778;54.346;10.210;2023-02-01T07:28:05;15.38;;;2.72;;
68792;SDS011;55778;54.346;10.210;2023-02-01T07:30:31;9.52;;;2.10;;
68792;SDS011;55778;54.346;10.210;2023-02-01T07:32:56;14.63;;;2.22;;
68792;SDS011;55778;54.346;10.210;2023-02-01T07:35:26;23.67;;;2.67;;
68792;SDS011;55778;54.346;10.210;2023-02-01T07:37:54;9.00;;;2.58;;
68792;SDS011;55778;54.346;10.210;2023-02-01T07:40:19;22.85;;;2.97;;
68792;SDS011;55778;54.346;10.210;2023-02-01T07:42:50;10.82;;;2.60;;
68792;SDS011;55778;54.346;10.210;2023-02-01T07:45:15;13.38;;;2.72;;
68792;SDS011;55778;54.346;10.210;2023-02-01T07:47:41;18.25;;;2.15;;
68792;SDS011;55778;54.346;10.210;2023-02-01T07:50:06;16.20;;;2.10;;
68792;SDS011;55778;54.346;10.210;2023-02-01T07:52:32;18.95;;;2.70;;
68792;SDS011;55778;54.346;10.210;2023-02-01T07:54:57;9.00;;;2.33;;
68792;SDS011;55778;54.346;10.210;2023-02-01T07:57:23;23.42;;;2.92;;
68792;SDS011;55778;54.346;10.210;2023-02-01T07:59:48;18.60;;;3.28;;
68792;SDS011;55778;54.346;10.210;2023-02-01T08:02:32;19.73;;;3.05;;
68792;SDS011;55778;54.346;10.210;2023-02-01T08:04:57;18.70;;;3.60;;
68792;SDS011;55778;54.346;10.210;2023-02-01T08:07:23;17.80;;;2.72;;
68792;SDS011;55778;54.346;10.210;2023-02-01T08:09:48;20.05;;;3.63;;
68792;SDS011;55778;54.346;10.210;2023-02-01T08:12:14;13.00;;;2.83;;
68792;SDS011;55778;54.346;10.210;2023-02-01T08:14:39;13.43;;;3.17;;
68792;SDS011;55778;54.346;10.210;2023-02-01T08:17:05;14.40;;;2.95;;
68792;SDS011;55778;54.346;10.210;2023-02-01T08:19:31;12.30;;;2.42;;
68792;SDS011;55778;54.346;10.210;2023-02-01T08:21:57;19.05;;;2.70;;
68792;SDS011;55778;54.346;10.210;2023-02-01T08:24:24;7.82;;;1.88;;
68792;SDS011;55778;54.346;10.210;2023-02-01T08:26:50;15.32;;;2.85;;
68792;SDS011;55778;54.346;10.210;2023-02-01T08:29:15;10.52;;;2.40;;
68792;SDS011;55778;54.346;10.210;2023-02-01T08:31:41;13.85;;;2.25;;
68792;SDS011;55778;54.346;10.210;2023-02-01T08:34:07;13.98;;;2.35;;
68792;SDS011;55778;54.346;10.210;2023-02-01T08:36:33;6.30;;;1.67;;
68792;SDS011;55778;54.346;10.210;2023-02-01T08:39:00;10.55;;;2.63;;
68792;SDS011;55778;54.346;10.210;2023-02-01T08:41:27;10.18;;;2.05;;
68792;SDS011;55778;54.346;10.210;2023-02-01T08:43:54;10.57;;;1.70;;
68792;SDS011;55778;54.346;10.210;2023-02-01T08:46:20;9.07;;;2.15;;
68792;SDS011;55778;54.346;10.210;2023-02-01T08:48:46;14.45;;;2.08;;
68792;SDS011;55778;54.346;10.210;2023-02-01T08:51:12;17.38;;;2.65;;
68792;SDS011;55778;54.346;10.210;2023-02-01T08:53:39;11.52;;;2.13;;
68792;SDS011;55778;54.346;10.210;2023-02-01T08:56:07;15.75;;;2.83;;
68792;SDS011;55778;54.346;10.210;2023-02-01T08:58:34;10.63;;;1.70;;
68792;SDS011;55778;54.346;10.210;2023-02-01T09:01:06;11.98;;;2.00;;
68792;SDS011;55778;54.346;10.210;2023-02-01T09:03:34;7.30;;;1.90;;
68792;SDS011;55778;54.346;10.210;2023-02-01T09:06:01;13.75;;;1.90;;
68792;SDS011;55778;54.346;10.210;2023-02-01T09:08:28;7.80;;;1.90;;
68792;SDS011;55778;54.346;10.210;2023-02-01T09:10:53;11.77;;;1.80;;
68792;SDS011;55778;54.346;10.210;2023-02-01T09:13:24;15.13;;;2.00;;
68792;SDS011;55778;54.346;10.210;2023-02-01T09:15:50;12.05;;;2.28;;
68792;SDS011;55778;54.346;10.210;2023-02-01T09:18:16;9.80;;;2.10;;
68792;SDS011;55778;54.346;10.210;2023-02-01T09:20:41;8.85;;;1.73;;
68792;SDS011;55778;54.346;10.210;2023-02-01T09:23:07;12.77;;;1.75;;
68792;SDS011;55778;54.346;10.210;2023-02-01T09:25:32;12.93;;;2.45;;
68792;SDS011;55778;54.346;10.210;2023-02-01T09:27:57;14.98;;;2.38;;
68792;SDS011;55778;54.346;10.210;2023-02-01T09:30:23;12.38;;;2.13;;
68792;SDS011;55778;54.346;10.210;2023-02-01T09:32:48;12.98;;;2.25;;
68792;SDS011;55778;54.346;10.210;2023-02-01T09:35:14;11.40;;;2.03;;
68792;SDS011;55778;54.346;10.210;2023-02-01T09:37:39;13.75;;;2.17;;
68792;SDS011;55778;54.346;10.210;2023-02-01T09:40:05;13.65;;;3.15;;
68792;SDS011;55778;54.346;10.210;2023-02-01T09:45:24;15.18;;;3.17;;
68792;SDS011;55778;54.346;10.210;2023-02-01T09:47:55;22.23;;;3.53;;
68792;SDS011;55778;54.346;10.210;2023-02-01T09:50:45;18.45;;;2.17;;
68792;SDS011;55778;54.346;10.210;2023-02-01T09:56:00;24.60;;;3.90;;
68792;SDS011;55778;54.346;10.210;2023-02-01T09:58:35;11.68;;;1.95;;
68792;SDS011;55778;54.346;10.210;2023-02-01T10:01:22;14.65;;;2.40;;
68792;SDS011;55778;54.346;10.210;2023-02-01T10:03:49;18.15;;;2.58;;
68792;SDS011;55778;54.346;10.210;2023-02-01T10:06:48;17.05;;;3.03;;
68792;SDS011;55778;54.346;10.210;2023-02-01T10:15:24;16.65;;;3.03;;
68792;SDS011;55778;54.346;10.210;2023-02-01T10:26:22;6.07;;;1.52;;
68792;SDS011;55778;54.346;10.210;2023-02-01T10:28:53;16.15;;;2.22;;
68792;SDS011;55778;54.346;10.210;2023-02-01T10:31:24;14.65;;;2.67;;
68792;SDS011;55778;54.346;10.210;2023-02-01T10:33:59;21.75;;;3.15;;
68792;SDS011;55778;54.346;10.210;2023-02-01T10:36:31;20.42;;;2.95;;
68792;SDS011;55778;54.346;10.210;2023-02-01T10:39:01;10.55;;;2.20;;
68792;SDS011;55778;54.346;10.210;2023-02-01T10:41:33;16.02;;;2.40;;
68792;SDS011;55778;54.346;10.210;2023-02-01T10:44:00;19.33;;;3.20;;
68792;SDS011;55778;54.346;10.210;2023-02-01T10:46:29;14.00;;;2.67;;
68792;SDS011;55778;54.346;10.210;2023-02-01T10:48:56;15.43;;;2.65;;
68792;SDS011;55778;54.346;10.210;2023-02-01T10:51:30;20.00;;;3.63;;
68792;SDS011;55778;54.346;10.210;2023-02-01T10:54:11;16.30;;;2.20;;
68792;SDS011;55778;54.346;10.210;2023-02-01T10:56:43;20.25;;;2.78;;
68792;SDS011;55778;54.346;10.210;2023-02-01T10:59:19;11.70;;;2.63;;
68792;SDS011;55778;54.346;10.210;2023-02-01T11:01:49;8.85;;;2.05;;
68792;SDS011;55778;54.346;10.210;2023-02-01T11:04:19;16.75;;;1.98;;
68792;SDS011;55778;54.346;10.210;2023-02-01T11:09:19;13.45;;;2.55;;
68792;SDS011;55778;54.346;10.210;2023-02-01T11:16:54;14.52;;;2.65;;
68792;SDS011;55778;54.346;10.210;2023-02-01T11:19:22;7.82;;;1.40;;
68792;SDS011;55778;54.346;10.210;2023-02-01T11:21:51;10.57;;;1.77;;
68792;SDS011;55778;54.346;10.210;2023-02-01T11:24:28;5.35;;;1.10;;
68792;SDS011;55778;54.346;10.210;2023-02-01T11:26:58;13.50;;;1.95;;
68792;SDS011;55778;54.346;10.210;2023-02-01T11:29:27;12.90;;;2.70;;
68792;SDS011;55778;54.346;10.210;2023-02-01T11:32:00;11.27;;;2.10;;
68792;SDS011;55778;54.346;10.210;2023-02-01T11:35:14;17.10;;;2.13;;
68792;SDS011;55778;54.346;10.210;2023-02-01T11:37:37;15.10;;;3.15;;
68792;SDS011;55778;54.346;10.210;2023-02-01T11:42:53;10.75;;;1.75;;
68792;SDS011;55778;54.346;10.210;2023-02-01T11:47:51;11.85;;;1.90;;
68792;SDS011;55778;54.346;10.210;2023-02-01T11:50:19;13.02;;;2.40;;
68792;SDS011;55778;54.346;10.210;2023-02-01T11:58:28;11.13;;;2.20;;
68792;SDS011;55778;54.346;10.210;2023-02-01T12:01:11;18.55;;;3.15;;
68792;SDS011;55778;54.346;10.210;2023-02-01T12:06:57;13.55;;;1.60;;
68792;SDS011;55778;54.346;10.210;2023-02-01T12:12:32;13.15;;;2.08;;
68792;SDS011;55778;54.346;10.210;2023-02-01T12:24:01;5.40;;;1.40;;
68792;SDS011;55778;54.346;10.210;2023-02-01T12:26:44;10.55;;;1.77;;
68792;SDS011;55778;54.346;10.210;2023-02-01T12:32:04;7.15;;;1.52;;
68792;SDS011;55778;54.346;10.210;2023-02-01T12:42:29;3.25;;;0.85;;
68792;SDS011;55778;54.346;10.210;2023-02-01T12:47:39;4.78;;;0.93;;
68792;SDS011;55778;54.346;10.210;2023-02-01T12:50:14;4.10;;;1.10;;
68792;SDS011;55778;54.346;10.210;2023-02-01T12:52:50;6.55;;;1.60;;
68792;SDS011;55778;54.346;10.210;2023-02-01T12:55:22;9.73;;;2.15;;
68792;SDS011;55778;54.346;10.210;2023-02-01T12:57:50;9.23;;;2.03;;
68792;SDS011;55778;54.346;10.210;2023-02-01T13:00:30;10.20;;;2.00;;
68792;SDS011;55778;54.346;10.210;2023-02-01T13:03:05;9.88;;;1.95;;
68792;SDS011;55778;54.346;10.210;2023-02-01T13:08:36;9.93;;;1.92;;
68792;SDS011;55778;54.346;10.210;2023-02-01T13:11:12;11.00;;;2.25;;
68792;SDS011;55778;54.346;10.210;2023-02-01T13:16:25;9.55;;;2.42;;
68792;SDS011;55778;54.346;10.210;2023-02-01T13:19:27;8.50;;;1.27;;
68792;SDS011;55778;54.346;10.210;2023-02-01T13:22:10;11.98;;;2.35;;
68792;SDS011;55778;54.346;10.210;2023-02-01T13:24:45;6.65;;;1.33;;
68792;SDS011;55778;54.346;10.210;2023-02-01T13:27:15;2.40;;;0.80;;
68792;SDS011;55778;54.346;10.210;2023-02-01T13:29:50;1.27;;;0.60;;
68792;SDS011;55778;54.346;10.210;2023-02-01T13:32:23;3.35;;;0.90;;
68792;SDS011;55778;54.346;10.210;2023-02-01T13:34:59;6.22;;;1.80;;
68792;SDS011;55778;54.346;10.210;2023-02-01T13:40:51;4.53;;;1.17;;
68792;SDS011;55778;54.346;10.210;2023-02-01T13:43:50;6.38;;;1.67;;
68792;SDS011;55778;54.346;10.210;2023-02-01T13:48:51;7.22;;;1.65;;
68792;SDS011;55778;54.346;10.210;2023-02-01T13:51:37;9.10;;;1.92;;
68792;SDS011;55778;54.346;10.210;2023-02-01T13:54:07;11.23;;;1.65;;
68792;SDS011;55778;54.346;10.210;2023-02-01T13:56:50;6.32;;;1.45;;
68792;SDS011;55778;54.346;10.210;2023-02-01T14:10:54;5.15;;;1.75;;
68792;SDS011;55778;54.346;10.210;2023-02-01T14:58:29;19.10;;;3.00;;
68792;SDS011;55778;54.346;10.210;2023-02-01T15:07:07;14.43;;;1.90;;
68792;SDS011;55778;54.346;10.210;2023-02-01T15:14:40;13.73;;;2.95;;
68792;SDS011;55778;54.346;10.210;2023-02-01T15:19:54;12.43;;;2.72;;
68792;SDS011;55778;54.346;10.210;2023-02-01T15:22:21;18.77;;;3.80;;
68792;SDS011;55778;54.346;10.210;2023-02-01T15:24:57;11.73;;;3.03;;
68792;SDS011;55778;54.346;10.210;2023-02-01T15:27:24;15.48;;;2.90;;
68792;SDS011;55778;54.346;10.210;2023-02-01T15:29:51;16.42;;;3.38;;
68792;SDS011;55778;54.346;10.210;2023-02-01T15:32:30;18.80;;;3.28;;
68792;SDS011;55778;54.346;10.210;2023-02-01T15:34:56;15.38;;;3.03;;
68792;SDS011;55778;54.346;10.210;2023-02-01T15:37:23;10.23;;;2.63;;
68792;SDS011;55778;54.346;10.210;2023-02-01T15:42:37;14.10;;;3.17;;
68792;SDS011;55778;54.346;10.210;2023-02-01T15:45:18;19.42;;;3.17;;
68792;SDS011;55778;54.346;10.210;2023-02-01T15:47:49;23.70;;;3.70;;
68792;SDS011;55778;54.346;10.210;2023-02-01T15:50:17;12.63;;;3.00;;
68792;SDS011;55778;54.346;10.210;2023-02-01T15:52:45;13.70;;;2.90;;
68792;SDS011;55778;54.346;10.210;2023-02-01T15:57:59;16.98;;;2.70;;
68792;SDS011;55778;54.346;10.210;2023-02-01T16:00:26;15.32;;;3.20;;
68792;SDS011;55778;54.346;10.210;2023-02-01T16:03:01;11.70;;;2.75;;
68792;SDS011;55778;54.346;10.210;2023-02-01T16:05:32;16.98;;;3.38;;
68792;SDS011;55778;54.346;10.210;2023-02-01T16:08:10;16.35;;;2.67;;
68792;SDS011;55778;54.346;10.210;2023-02-01T16:10:39;9.75;;;2.97;;
68792;SDS011;55778;54.346;10.210;2023-02-01T16:13:07;13.40;;;2.72;;
68792;SDS011;55778;54.346;10.210;2023-02-01T16:15:33;20.20;;;4.70;;
68792;SDS011;55778;54.346;10.210;2023-02-01T16:17:58;18.33;;;4.35;;
68792;SDS011;55778;54.346;10.210;2023-02-01T16:20:24;17.10;;;3.40;;
68792;SDS011;55778;54.346;10.210;2023-02-01T16:22:50;19.25;;;3.97;;
68792;SDS011;55778;54.346;10.210;2023-02-01T16:25:15;26.27;;;4.25;;
68792;SDS011;55778;54.346;10.210;2023-02-01T16:27:40;18.13;;;3.30;;
68792;SDS011;55778;54.346;10.210;2023-02-01T16:30:06;19.80;;;3.20;;
68792;SDS011;55778;54.346;10.210;2023-02-01T16:32:35;23.60;;;4.70;;
68792;SDS011;55778;54.346;10.210;2023-02-01T16:35:03;16.45;;;2.90;;
68792;SDS011;55778;54.346;10.210;2023-02-01T16:37:30;10.65;;;2.90;;
68792;SDS011;55778;54.346;10.210;2023-02-01T16:39:58;26.17;;;4.53;;
68792;SDS011;55778;54.346;10.210;2023-02-01T16:42:24;23.45;;;3.90;;
68792;SDS011;55778;54.346;10.210;2023-02-01T16:44:49;22.52;;;4.72;;
68792;SDS011;55778;54.346;10.210;2023-02-01T16:47:16;22.00;;;4.20;;
68792;SDS011;55778;54.346;10.210;2023-02-01T16:49:44;17.05;;;4.05;;
68792;SDS011;55778;54.346;10.210;2023-02-01T16:52:17;16.27;;;4.40;;
68792;SDS011;55778;54.346;10.210;2023-02-01T16:54:44;15.35;;;3.78;;
68792;SDS011;55778;54.346;10.210;2023-02-01T16:57:11;27.27;;;4.65;;
68792;SDS011;55778;54.346;10.210;2023-02-01T16:59:38;21.25;;;3.95;;
68792;SDS011;55778;54.346;10.210;2023-02-01T17:02:03;19.60;;;4.38;;
68792;SDS011;55778;54.346;10.210;2023-02-01T17:04:29;12.00;;;2.10;;
68792;SDS011;55778;54.346;10.210;2023-02-01T17:06:54;25.67;;;6.18;;
68792;SDS011;55778;54.346;10.210;2023-02-01T17:09:19;26.67;;;4.72;;
68792;SDS011;55778;54.346;10.210;2023-02-01T17:11:45;18.42;;;4.93;;
68792;SDS011;55778;54.346;10.210;2023-02-01T17:14:16;14.35;;;2.70;;
68792;SDS011;55778;54.346;10.210;2023-02-01T17:16:44;23.70;;;3.53;;
68792;SDS011;55778;54.346;10.210;2023-02-01T17:19:12;20.15;;;3.67;;
68792;SDS011;55778;54.346;10.210;2023-02-01T17:21:42;18.80;;;3.67;;
68792;SDS011;55778;54.346;10.210;2023-02-01T17:26:40;24.40;;;5.35;;
68792;SDS011;55778;54.346;10.210;2023-02-01T17:29:06;17.92;;;3.55;;
68792;SDS011;55778;54.346;10.210;2023-02-01T17:31:32;13.55;;;2.35;;
68792;SDS011;55778;54.346;10.210;2023-02-01T17:34:01;11.57;;;2.83;;
68792;SDS011;55778;54.346;10.210;2023-02-01T17:36:27;22.83;;;3.80;;
68792;SDS011;55778;54.346;10.210;2023-02-01T17:38:52;19.90;;;3.13;;
68792;SDS011;55778;54.346;10.210;2023-02-01T17:41:17;22.23;;;4.35;;
68792;SDS011;55778;54.346;10.210;2023-02-01T17:43:43;12.90;;;3.05;;